createdAt,value
2023-06-14T00:00:35.302Z,99831.56
2023-06-14T00:03:02.121Z,99838.22
2023-06-14T00:05:30.784Z,99837.03
2023-06-14T00:07:57.428Z,99830.47
2023-06-14T00:10:24.016Z,99838.75
2023-06-14T00:12:50.541Z,99840.19
2023-06-14T00:15:17.205Z,99841.63
2023-06-14T00:17:45.913Z,99845.59
2023-06-14T00:20:12.382Z,99839.06
2023-06-14T00:22:39.736Z,99839.50
2023-06-14T00:25:19.315Z,99839.09
2023-06-14T00:27:57.612Z,99849.41
2023-06-14T00:30:24.616Z,99843.50
2023-06-14T00:32:52.449Z,99846.66
2023-06-14T00:35:19.143Z,99841.75
2023-06-14T00:37:45.537Z,99841.34
2023-06-14T00:40:12.063Z,99842.78
2023-06-14T00:42:38.675Z,99848.41
2023-06-14T00:45:05.594Z,99854.38
2023-06-14T00:47:32.207Z,99848.78
2023-06-14T00:49:59.955Z,99848.38
2023-06-14T00:52:26.393Z,99848.78
2023-06-14T00:54:53.015Z,99856.25
2023-06-14T00:57:21.970Z,99863.00
2023-06-14T00:59:49.784Z,99858.13
2023-06-14T01:02:16.852Z,99865.56
2023-06-14T01:04:46.547Z,99859.13
2023-06-14T01:07:21.850Z,99859.56
2023-06-14T01:10:16.495Z,99858.44
2023-06-14T01:12:52.795Z,99863.09
2023-06-14T01:15:21.765Z,99869.84
2023-06-14T01:17:52.689Z,99865.09
2023-06-14T01:20:22.894Z,99869.19
2023-06-14T01:22:53.732Z,99877.59
2023-06-14T01:25:24.103Z,99878.03
2023-06-14T01:27:53.694Z,99879.31
2023-06-14T01:30:22.233Z,99884.06
2023-06-14T01:32:51.285Z,99880.16
2023-06-14T01:35:17.918Z,99884.91
2023-06-14T01:37:47.846Z,99880.84
2023-06-14T01:40:16.426Z,99882.19
2023-06-14T01:42:44.347Z,99881.66
2023-06-14T01:45:11.656Z,99874.75
2023-06-14T01:47:38.317Z,99881.22
2023-06-14T01:50:05.378Z,99882.47
2023-06-14T01:52:31.863Z,99878.41
2023-06-14T01:54:58.864Z,99883.06
2023-06-14T01:57:27.691Z,99880.78
2023-06-14T01:59:54.314Z,99878.38
2023-06-14T02:02:20.688Z,99876.03
2023-06-14T02:04:48.415Z,99867.44
2023-06-14T02:07:15.485Z,99872.22
2023-06-14T02:09:42.644Z,99868.97
2023-06-14T02:12:09.795Z,99878.38
2023-06-14T02:14:36.188Z,99880.44
2023-06-14T02:17:02.850Z,99879.75
2023-06-14T02:19:29.504Z,99874.81
2023-06-14T02:21:55.897Z,99884.91
2023-06-14T02:24:22.525Z,99885.31
2023-06-14T02:26:49.305Z,99879.41
2023-06-14T02:29:16.040Z,99885.88
2023-06-14T02:31:42.824Z,99878.25
2023-06-14T02:34:11.863Z,99884.69
2023-06-14T02:36:42.612Z,99882.16
2023-06-14T02:39:14.645Z,99884.13
2023-06-14T02:41:41.074Z,99885.00
2023-06-14T02:44:07.800Z,99894.94
2023-06-14T02:46:34.259Z,99890.59
2023-06-14T02:49:01.108Z,99885.50
2023-06-14T02:51:27.582Z,99888.44
2023-06-14T02:53:54.028Z,99889.41
2023-06-14T02:56:20.562Z,99893.06
2023-06-14T02:58:47.207Z,99897.53
2023-06-14T03:01:15.043Z,99901.31
2023-06-14T03:03:41.514Z,99907.72
2023-06-14T03:06:09.140Z,99905.31
2023-06-14T03:08:39.735Z,99908.25
2023-06-14T03:11:06.699Z,99913.84
2023-06-14T03:13:33.517Z,99917.06
2023-06-14T03:16:00.495Z,99928.09
2023-06-14T03:18:28.236Z,99924.00
2023-06-14T03:20:55.041Z,99924.25
2023-06-14T03:23:22.383Z,99923.66
2023-06-14T03:25:48.849Z,99926.59
2023-06-14T03:28:15.483Z,99928.66
2023-06-14T03:30:42.010Z,99929.78
2023-06-14T03:33:09.652Z,99938.00
2023-06-14T03:35:36.177Z,99939.25
2023-06-14T03:38:03.658Z,99941.19
2023-06-14T03:40:30.321Z,99938.78
2023-06-14T03:42:56.775Z,99946.06
2023-06-14T03:45:23.190Z,99947.88
2023-06-14T03:47:49.699Z,99947.13
2023-06-14T03:50:16.472Z,99948.25
2023-06-14T03:52:44.670Z,99948.25
2023-06-14T03:57:41.410Z,99952.13
2023-06-14T04:00:10.731Z,99949.47
2023-06-14T04:02:37.594Z,99955.66
2023-06-14T04:05:05.008Z,99961.94
2023-06-14T04:07:31.498Z,99962.78
2023-06-14T04:09:57.972Z,99968.94
2023-06-14T04:12:24.340Z,99970.50
2023-06-14T04:14:50.959Z,99972.19
2023-06-14T04:17:17.352Z,99973.06
2023-06-14T04:19:43.778Z,99977.41
2023-06-14T04:22:11.700Z,99981.63
2023-06-14T04:24:38.072Z,99982.47
2023-06-14T04:27:04.845Z,99986.56
2023-06-14T04:29:32.369Z,99982.94
2023-06-14T04:32:02.574Z,99991.66
2023-06-14T04:34:30.657Z,100000.34
2023-06-14T04:36:57.473Z,99994.75
2023-06-14T04:39:24.040Z,99999.00
2023-06-14T04:41:57.591Z,99998.75
2023-06-14T04:44:30.801Z,100000.19
2023-06-14T04:47:00.549Z,100011.28
2023-06-14T04:49:28.512Z,100015.09
2023-06-14T04:52:00.273Z,100017.38
2023-06-14T04:54:26.752Z,100017.13
2023-06-14T04:56:54.207Z,100014.06
2023-06-14T04:59:20.830Z,100018.16
2023-06-14T05:01:49.944Z,100017.66
2023-06-14T05:04:17.248Z,100020.81
2023-06-14T05:06:49.069Z,100013.25
2023-06-14T05:09:17.556Z,100022.56
2023-06-14T05:11:45.006Z,100018.53
2023-06-14T05:14:12.177Z,100010.13
2023-06-14T05:16:41.596Z,100015.06
2023-06-14T05:19:08.102Z,100024.19
2023-06-14T05:21:42.328Z,100023.81
2023-06-14T05:24:10.388Z,100020.78
2023-06-14T05:26:36.914Z,100018.53
2023-06-14T05:29:03.808Z,100023.47
2023-06-14T05:31:30.222Z,100020.28
2023-06-14T05:33:56.777Z,100014.50
2023-06-14T05:36:23.481Z,100022.81
2023-06-14T05:38:49.955Z,100025.78
2023-06-14T05:41:16.351Z,100026.38
2023-06-14T05:43:42.767Z,100021.47
2023-06-14T05:46:09.119Z,100027.16
2023-06-14T05:48:35.619Z,100029.25
2023-06-14T05:51:02.040Z,100031.53
2023-06-14T05:53:28.466Z,100036.31
2023-06-14T05:55:55.949Z,100033.22
2023-06-14T05:58:23.068Z,100036.19
2023-06-14T06:00:49.502Z,100040.00
2023-06-14T06:03:15.945Z,100050.00
2023-06-14T06:05:42.470Z,100045.94
2023-06-14T06:08:08.861Z,100047.34
2023-06-14T06:10:35.459Z,100050.28
2023-06-14T06:13:01.815Z,100056.06
2023-06-14T06:15:28.203Z,100058.31
2023-06-14T06:17:56.511Z,100060.53
2023-06-14T06:20:31.096Z,100055.78
2023-06-14T06:23:00.642Z,100059.69
2023-06-14T06:25:32.746Z,100058.44
2023-06-14T06:27:59.202Z,100055.25
2023-06-14T06:30:26.167Z,100056.50
2023-06-14T06:32:53.034Z,100061.13
2023-06-14T06:35:19.798Z,100058.00
2023-06-14T06:37:46.173Z,100061.13
2023-06-14T06:40:13.220Z,100058.00
2023-06-14T06:42:39.611Z,100058.56
2023-06-14T06:45:06.941Z,100062.94
2023-06-14T06:47:33.406Z,100068.84
2023-06-14T06:49:59.838Z,100064.19
2023-06-14T06:52:26.225Z,100078.78
2023-06-14T06:54:55.865Z,100074.84
2023-06-14T06:57:23.745Z,100074.44
2023-06-14T06:59:50.772Z,100077.34
2023-06-14T07:02:17.888Z,100086.63
2023-06-14T07:04:44.344Z,100079.88
2023-06-14T07:07:10.902Z,100082.81
2023-06-14T07:09:37.738Z,100080.38
2023-06-14T07:12:04.504Z,100087.84
2023-06-14T07:14:31.171Z,100088.09
2023-06-14T07:16:57.548Z,100085.13
2023-06-14T07:19:23.931Z,100088.19
2023-06-14T07:21:50.375Z,100091.28
2023-06-14T07:24:16.876Z,100099.69
2023-06-14T07:26:43.480Z,100098.25
2023-06-14T07:29:09.848Z,100100.50
2023-06-14T07:31:36.253Z,100098.34
2023-06-14T07:34:03.165Z,100096.22
2023-06-14T07:36:29.578Z,100097.78
2023-06-14T07:38:56.191Z,100093.94
2023-06-14T07:41:22.877Z,100096.50
2023-06-14T07:43:52.594Z,100098.16
2023-06-14T07:46:19.323Z,100090.50
2023-06-14T07:48:45.799Z,100099.94
2023-06-14T07:51:12.261Z,100102.16
2023-06-14T07:53:38.624Z,100092.66
2023-06-14T07:56:05.070Z,100089.53
2023-06-14T07:58:31.450Z,100089.94
2023-06-14T08:00:57.850Z,100095.53
2023-06-14T08:03:25.037Z,100101.28
2023-06-14T08:05:51.845Z,100097.31
2023-06-14T08:08:18.229Z,100093.16
2023-06-14T08:10:45.319Z,100088.03
2023-06-14T08:13:11.697Z,100090.13
2023-06-14T08:15:38.067Z,100102.75
2023-06-14T08:18:04.486Z,100105.50
2023-06-14T08:20:33.036Z,100100.50
2023-06-14T08:22:59.641Z,100098.88
2023-06-14T08:25:26.878Z,100109.97
2023-06-14T08:27:53.567Z,100104.13
2023-06-14T08:30:20.133Z,100106.34
2023-06-14T08:32:47.297Z,100096.28
2023-06-14T08:35:16.998Z,100106.75
2023-06-14T08:37:43.456Z,100106.59
2023-06-14T08:40:18.307Z,100104.06
2023-06-14T08:42:46.575Z,100107.09
2023-06-14T08:45:13.395Z,100103.44
2023-06-14T08:47:41.848Z,100104.13
2023-06-14T08:50:19.480Z,100105.78
2023-06-14T08:53:02.944Z,100105.63
2023-06-14T08:55:33.976Z,100098.97
2023-06-14T08:58:04.203Z,100111.56
2023-06-14T09:00:31.698Z,100107.25
2023-06-14T09:03:00.830Z,100109.28
2023-06-14T09:05:28.354Z,100122.09
2023-06-14T09:08:04.068Z,100104.34
2023-06-14T09:10:39.565Z,100117.47
2023-06-14T09:13:06.419Z,100117.50
2023-06-14T09:15:33.426Z,100112.16
2023-06-14T09:18:02.354Z,100113.25
2023-06-14T09:20:31.132Z,100119.78
2023-06-14T09:22:57.930Z,100124.69
2023-06-14T09:25:38.020Z,100122.66
2023-06-14T09:28:07.940Z,100120.66
2023-06-14T09:30:34.345Z,100125.56
2023-06-14T09:33:02.266Z,100128.75
2023-06-14T09:35:31.958Z,100130.09
2023-06-14T09:37:58.393Z,100117.00
2023-06-14T09:40:25.292Z,100111.97
2023-06-14T09:42:53.150Z,100125.59
2023-06-14T09:45:22.613Z,100130.47
2023-06-14T09:48:06.143Z,100130.81
2023-06-14T09:50:34.010Z,100130.13
2023-06-14T09:53:06.975Z,100129.81
2023-06-14T09:55:36.651Z,100126.31
2023-06-14T09:58:06.799Z,100130.19
2023-06-14T10:00:35.661Z,100121.09
2023-06-14T10:03:11.551Z,100135.22
2023-06-14T10:05:38.579Z,100123.44
2023-06-14T10:08:19.607Z,100133.50
2023-06-14T10:10:46.215Z,100128.13
2023-06-14T10:13:13.830Z,100127.63
2023-06-14T10:15:59.269Z,100139.19
2023-06-14T10:18:41.417Z,100140.91
2023-06-14T10:21:29.995Z,100128.28
2023-06-14T10:24:01.431Z,100136.50
2023-06-14T10:26:28.366Z,100128.94
2023-06-14T10:29:08.226Z,100138.31
2023-06-14T10:31:45.433Z,100130.44
2023-06-14T10:34:28.739Z,100141.66
2023-06-14T10:37:05.655Z,100128.16
2023-06-14T10:39:33.482Z,100123.03
2023-06-14T10:42:02.780Z,100124.13
2023-06-14T10:44:29.785Z,100126.56
2023-06-14T10:46:59.010Z,100132.00
2023-06-14T10:49:46.541Z,100132.09
2023-06-14T10:52:18.259Z,100122.63
2023-06-14T10:55:11.996Z,100125.34
2023-06-14T10:57:51.600Z,100121.44
2023-06-14T11:00:23.765Z,100116.66
2023-06-14T11:03:12.090Z,100118.03
2023-06-14T11:05:55.994Z,100109.34
2023-06-14T11:11:07.836Z,100104.22
2023-06-14T11:13:34.606Z,100113.03
2023-06-14T11:16:01.381Z,100113.47
2023-06-14T11:18:29.741Z,100110.97
2023-06-14T11:20:56.499Z,100105.91
2023-06-14T11:23:24.518Z,100102.53
2023-06-14T11:25:54.233Z,100108.28
2023-06-14T11:28:22.807Z,100101.31
2023-06-14T11:31:02.755Z,100099.53
2023-06-14T11:33:29.490Z,100097.06
2023-06-14T11:35:56.181Z,100099.50
2023-06-14T11:38:22.854Z,100098.81
2023-06-14T11:40:49.453Z,100101.16
2023-06-14T11:43:16.341Z,100095.16
2023-06-14T11:45:43.024Z,100092.88
2023-06-14T11:48:11.081Z,100091.13
2023-06-14T11:50:39.728Z,100087.97
2023-06-14T11:53:11.480Z,100082.69
2023-06-14T11:55:42.454Z,100090.31
2023-06-14T11:58:09.506Z,100079.94
2023-06-14T12:00:38.138Z,100084.81
2023-06-14T12:03:04.897Z,100076.94
2023-06-14T12:05:31.669Z,100080.13
2023-06-14T12:08:04.004Z,100080.66
2023-06-14T12:10:30.675Z,100080.88
2023-06-14T12:13:01.063Z,100079.63
2023-06-14T12:15:31.131Z,100080.34
2023-06-14T12:17:59.295Z,100080.84
2023-06-14T12:20:31.266Z,100077.75
2023-06-14T12:23:01.650Z,100079.38
2023-06-14T12:25:35.192Z,100074.50
2023-06-14T12:28:07.399Z,100073.19
2023-06-14T12:30:34.761Z,100073.03
2023-06-14T12:33:03.421Z,100067.88
2023-06-14T12:35:31.029Z,100059.75
2023-06-14T12:37:57.647Z,100062.50
2023-06-14T12:40:24.842Z,100066.94
2023-06-14T12:42:51.614Z,100062.81
2023-06-14T12:45:18.718Z,100067.41
2023-06-14T12:47:45.986Z,100065.38
2023-06-14T12:50:12.842Z,100073.78
2023-06-14T12:52:39.586Z,100071.19
2023-06-14T12:55:06.884Z,100074.91
2023-06-14T12:57:33.618Z,100065.53
2023-06-14T13:00:01.540Z,100077.22
2023-06-14T13:02:28.283Z,100072.94
2023-06-14T13:04:55.174Z,100078.56
2023-06-14T13:07:21.840Z,100076.28
2023-06-14T13:09:48.454Z,100082.13
2023-06-14T13:12:15.061Z,100070.66
2023-06-14T13:14:42.119Z,100073.97
2023-06-14T13:17:12.235Z,100072.88
2023-06-14T13:19:38.872Z,100073.59
2023-06-14T13:22:06.080Z,100069.84
2023-06-14T13:24:32.851Z,100069.97
2023-06-14T13:26:59.585Z,100065.16
2023-06-14T13:29:27.561Z,100074.56
2023-06-14T13:31:56.951Z,100069.19
2023-06-14T13:34:23.567Z,100072.56
2023-06-14T13:36:51.081Z,100068.00
2023-06-14T13:39:17.756Z,100064.50
2023-06-14T13:41:44.558Z,100069.41
2023-06-14T13:44:16.894Z,100075.56
2023-06-14T13:46:44.182Z,100070.19
2023-06-14T13:49:11.333Z,100074.94
2023-06-14T13:51:37.886Z,100069.09
2023-06-14T13:54:04.679Z,100062.66
2023-06-14T13:56:31.724Z,100062.16
2023-06-14T13:58:58.366Z,100066.44
2023-06-14T14:01:26.731Z,100062.81
2023-06-14T14:03:53.520Z,100047.59
2023-06-14T14:06:20.235Z,100053.28
2023-06-14T14:08:46.786Z,100050.69
2023-06-14T14:11:14.683Z,100053.88
2023-06-14T14:13:41.521Z,100058.72
2023-06-14T14:16:08.308Z,100053.75
2023-06-14T14:18:35.098Z,100063.44
2023-06-14T14:21:01.961Z,100057.47
2023-06-14T14:23:28.988Z,100052.97
2023-06-14T14:25:55.883Z,100053.69
2023-06-14T14:28:22.488Z,100049.66
2023-06-14T14:30:49.009Z,100050.00
2023-06-14T14:33:18.093Z,100052.25
2023-06-14T14:35:48.501Z,100057.69
2023-06-14T14:38:18.618Z,100053.47
2023-06-14T14:40:45.836Z,100049.81
2023-06-14T14:43:12.489Z,100036.00
2023-06-14T14:45:39.136Z,100048.53
2023-06-14T14:48:06.281Z,100048.28
2023-06-14T14:50:33.858Z,100049.81
2023-06-14T14:53:00.602Z,100054.81
2023-06-14T14:55:27.242Z,100046.22
2023-06-14T14:57:54.152Z,100053.47
2023-06-14T15:00:21.052Z,100054.44
2023-06-14T15:02:47.762Z,100048.50
2023-06-14T15:05:14.608Z,100046.22
2023-06-14T15:07:41.578Z,100044.09
2023-06-14T15:10:09.443Z,100048.13
2023-06-14T15:12:36.630Z,100049.16
2023-06-14T15:15:03.736Z,100050.75
2023-06-14T15:17:30.980Z,100057.97
2023-06-14T15:19:57.669Z,100049.56
2023-06-14T15:22:24.247Z,100048.94
2023-06-14T15:24:51.004Z,100036.84
2023-06-14T15:27:17.654Z,100043.31
2023-06-14T15:29:45.807Z,100045.06
2023-06-14T15:32:13.626Z,100041.56
2023-06-14T15:34:40.569Z,100049.47
2023-06-14T15:37:08.565Z,100045.13
2023-06-14T15:39:35.699Z,100042.38
2023-06-14T15:42:02.497Z,100046.53
2023-06-14T15:44:29.129Z,100044.34
2023-06-14T15:46:56.018Z,100042.97
2023-06-14T15:49:22.643Z,100048.06
2023-06-14T15:51:49.183Z,100049.81
2023-06-14T15:54:15.926Z,100049.00
2023-06-14T15:56:42.561Z,100042.19
2023-06-14T15:59:09.113Z,100043.63
2023-06-14T16:01:36.217Z,100037.13
2023-06-14T16:04:03.043Z,100030.19
2023-06-14T16:06:29.637Z,100038.34
2023-06-14T16:08:56.207Z,100034.94
2023-06-14T16:11:22.836Z,100036.94
2023-06-14T16:13:49.302Z,100035.59
2023-06-14T16:16:16.002Z,100028.09
2023-06-14T16:18:42.568Z,100035.13
2023-06-14T16:21:11.477Z,100025.09
2023-06-14T16:23:38.365Z,100023.38
2023-06-14T16:26:05.096Z,100019.50
2023-06-14T16:28:35.412Z,100019.75
2023-06-14T16:31:02.055Z,100016.44
2023-06-14T16:33:28.658Z,100021.06
2023-06-14T16:35:55.325Z,100027.72
2023-06-14T16:38:22.750Z,100028.31
2023-06-14T16:40:49.516Z,100030.63
2023-06-14T16:43:16.417Z,100026.88
2023-06-14T16:45:43.458Z,100031.19
2023-06-14T16:48:10.321Z,100021.31
2023-06-14T16:50:37.960Z,100025.38
2023-06-14T16:53:05.122Z,100031.09
2023-06-14T16:55:32.986Z,100026.47
2023-06-14T16:57:59.630Z,100034.41
2023-06-14T17:00:27.299Z,100035.22
2023-06-14T17:02:57.231Z,100037.00
2023-06-14T17:05:23.944Z,100038.16
2023-06-14T17:07:50.606Z,100041.13
2023-06-14T17:10:17.295Z,100047.66
2023-06-14T17:12:43.931Z,100047.91
2023-06-14T17:15:11.083Z,100044.31
2023-06-14T17:17:37.570Z,100046.84
2023-06-14T17:20:05.351Z,100042.88
2023-06-14T17:22:31.948Z,100046.63
2023-06-14T17:24:58.780Z,100047.81
2023-06-14T17:27:25.484Z,100041.50
2023-06-14T17:29:51.957Z,100045.84
2023-06-14T17:32:18.443Z,100050.16
2023-06-14T17:34:44.956Z,100055.94
2023-06-14T17:37:11.477Z,100054.22
2023-06-14T17:39:40.303Z,100047.50
2023-06-14T17:42:07.186Z,100052.03
2023-06-14T17:44:33.664Z,100054.72
2023-06-14T17:47:00.256Z,100046.75
2023-06-14T17:49:27.464Z,100049.63
2023-06-14T17:51:53.979Z,100048.94
2023-06-14T17:54:20.471Z,100045.50
2023-06-14T17:56:47.492Z,100038.75
2023-06-14T17:59:13.857Z,100052.25
2023-06-14T18:01:40.301Z,100051.56
2023-06-14T18:04:06.713Z,100053.34
2023-06-14T18:06:33.309Z,100048.28
2023-06-14T18:09:00.815Z,100050.47
2023-06-14T18:11:28.501Z,100047.03
2023-06-14T18:13:54.856Z,100050.06
2023-06-14T18:16:21.309Z,100048.69
2023-06-14T18:18:49.566Z,100050.66
2023-06-14T18:21:15.939Z,100059.91
2023-06-14T18:23:42.375Z,100063.59
2023-06-14T18:26:08.785Z,100059.13
2023-06-14T18:28:36.966Z,100055.50
2023-06-14T18:31:03.585Z,100067.00
2023-06-14T18:33:30.037Z,100073.16
2023-06-14T18:35:56.434Z,100068.31
2023-06-14T18:38:22.831Z,100074.66
2023-06-14T18:40:52.443Z,100060.88
2023-06-14T18:43:19.655Z,100071.59
2023-06-14T18:45:46.237Z,100077.72
2023-06-14T18:48:12.731Z,100079.31
2023-06-14T18:50:39.324Z,100073.81
2023-06-14T18:53:05.744Z,100071.03
2023-06-14T18:55:32.230Z,100073.59
2023-06-14T18:57:58.597Z,100081.53
2023-06-14T19:00:25.830Z,100078.72
2023-06-14T19:02:52.316Z,100076.13
2023-06-14T19:05:20.440Z,100075.19
2023-06-14T19:07:49.375Z,100081.66
2023-06-14T19:10:15.859Z,100084.41
2023-06-14T19:12:42.609Z,100080.91
2023-06-14T19:15:09.599Z,100084.53
2023-06-14T19:17:36.035Z,100089.75
2023-06-14T19:20:02.613Z,100093.34
2023-06-14T19:22:29.001Z,100086.13
2023-06-14T19:24:55.339Z,100088.69
2023-06-14T19:27:21.705Z,100088.72
2023-06-14T19:29:48.054Z,100088.59
2023-06-14T19:32:14.570Z,100101.09
2023-06-14T19:34:45.010Z,100100.81
2023-06-14T19:37:11.979Z,100095.94
2023-06-14T19:39:38.434Z,100106.22
2023-06-14T19:42:06.089Z,100106.56
2023-06-14T19:44:32.470Z,100104.19
2023-06-14T19:46:58.837Z,100110.78
2023-06-14T19:49:25.248Z,100109.28
2023-06-14T19:51:51.612Z,100119.34
2023-06-14T19:54:18.166Z,100108.25
2023-06-14T19:56:46.101Z,100115.81
2023-06-14T19:59:12.540Z,100119.03
2023-06-14T20:01:38.926Z,100128.44
2023-06-14T20:04:05.411Z,100124.44
2023-06-14T20:06:31.955Z,100128.66
2023-06-14T20:08:58.315Z,100126.47
2023-06-14T20:11:24.691Z,100129.69
2023-06-14T20:13:51.020Z,100137.22
2023-06-14T20:16:17.549Z,100139.75
2023-06-14T20:18:44.006Z,100133.88
2023-06-14T20:21:10.479Z,100138.94
2023-06-14T20:23:38.628Z,100136.59
2023-06-14T20:26:05.176Z,100145.13
2023-06-14T20:28:32.593Z,100143.78
2023-06-14T20:30:58.971Z,100144.31
2023-06-14T20:33:25.383Z,100136.69
2023-06-14T20:35:51.813Z,100141.56
2023-06-14T20:38:20.941Z,100137.53
2023-06-14T20:40:49.605Z,100138.03
2023-06-14T20:43:16.735Z,100142.06
2023-06-14T20:45:43.086Z,100143.38
2023-06-14T20:48:09.621Z,100141.06
2023-06-14T20:50:36.089Z,100143.22
2023-06-14T20:53:02.608Z,100143.41
2023-06-14T20:55:29.318Z,100142.88
2023-06-14T20:57:56.846Z,100144.91
2023-06-14T21:00:23.228Z,100141.50
2023-06-14T21:02:49.597Z,100147.91
2023-06-14T21:05:16.271Z,100149.72
2023-06-14T21:07:43.577Z,100151.59
2023-06-14T21:10:10.581Z,100150.91
2023-06-14T21:12:36.929Z,100154.59
2023-06-14T21:15:03.569Z,100158.31
2023-06-14T21:17:30.070Z,100149.56
2023-06-14T21:19:56.527Z,100153.25
2023-06-14T21:22:22.894Z,100156.09
2023-06-14T21:24:49.272Z,100150.88
2023-06-14T21:27:15.637Z,100151.22
2023-06-14T21:29:42.295Z,100137.09
2023-06-14T21:32:09.596Z,100141.13
2023-06-14T21:34:36.056Z,100145.13
2023-06-14T21:37:02.423Z,100143.78
2023-06-14T21:39:28.854Z,100145.94
2023-06-14T21:41:55.686Z,100143.69
2023-06-14T21:44:22.578Z,100145.88
2023-06-14T21:46:49.128Z,100152.41
2023-06-14T21:49:15.617Z,100151.75
2023-06-14T21:51:42.187Z,100146.53
2023-06-14T21:54:10.389Z,100153.06
2023-06-14T21:56:37.476Z,100155.91
2023-06-14T21:59:04.072Z,100150.00
2023-06-14T22:01:30.568Z,100156.69
2023-06-14T22:03:56.990Z,100155.53
2023-06-14T22:06:23.469Z,100161.19
2023-06-14T22:08:50.148Z,100157.16
2023-06-14T22:11:16.572Z,100160.28
2023-06-14T22:13:44.504Z,100155.41
2023-06-14T22:16:11.517Z,100151.38
2023-06-14T22:18:38.100Z,100159.88
2023-06-14T22:21:04.513Z,100160.53
2023-06-14T22:23:37.018Z,100159.00
2023-06-14T22:26:10.146Z,100172.03
2023-06-14T22:28:39.768Z,100171.34
2023-06-14T22:31:11.629Z,100171.84
2023-06-14T22:33:46.243Z,100173.66
2023-06-14T22:36:17.278Z,100163.34
2023-06-14T22:38:46.190Z,100171.72
2023-06-14T22:41:13.610Z,100168.66
2023-06-14T22:43:42.860Z,100170.28
2023-06-14T22:46:11.955Z,100170.88
2023-06-14T22:48:50.711Z,100174.19
2023-06-14T22:51:19.304Z,100168.47
2023-06-14T22:53:45.912Z,100176.13
2023-06-14T22:56:14.328Z,100171.06
2023-06-14T22:58:42.592Z,100167.69
2023-06-14T23:01:15.300Z,100169.69
2023-06-14T23:03:42.475Z,100174.34
2023-06-14T23:06:09.397Z,100172.88
2023-06-14T23:08:36.005Z,100173.03
2023-06-14T23:13:38.556Z,100171.66
2023-06-14T23:16:08.768Z,100170.84
2023-06-14T23:18:37.049Z,100167.44
2023-06-14T23:21:04.009Z,100173.81
2023-06-14T23:23:30.753Z,100174.81
2023-06-14T23:25:57.599Z,100171.44
2023-06-14T23:28:24.077Z,100177.94
2023-06-14T23:30:51.880Z,100170.22
2023-06-14T23:33:18.286Z,100171.34
2023-06-14T23:35:44.637Z,100177.69
2023-06-14T23:38:13.587Z,100172.66
2023-06-14T23:40:40.242Z,100172.09
2023-06-14T23:43:09.261Z,100174.09
2023-06-14T23:45:35.950Z,100165.69
2023-06-14T23:48:02.440Z,100175.81
2023-06-14T23:50:29.224Z,100176.09
2023-06-14T23:53:00.175Z,100176.56
2023-06-14T23:55:30.537Z,100172.50
2023-06-14T23:57:57.688Z,100172.78
